Time;durP1;ratioP1;P1;durP2;ratioP2;P2;SDS_P1;SDS_P2;PMS_P1;PMS_P2;Temp;Humidity;BMP_temperature;BMP_pressure;BME280_temperature;BME280_humidity;BME280_pressure;Samples;Min_cycle;Max_cycle;Signal;HPM_P1;HPM_P2
2021/10/03 00:00:58;;;;;;;21.15;13.70;;;;;;;9.96;56.36;101534.38;3498756;28;20484;-72
2021/10/03 00:02:43;;;;;;;20.70;12.77;;;;;;;9.97;56.38;101531.59;3509559;28;20043;-73
2021/10/03 00:04:28;;;;;;;19.48;13.27;;;;;;;9.98;56.57;101543.06;3495783;28;20044;-72
2021/10/03 00:06:10;;;;;;;24.55;13.75;;;;;;;9.95;56.23;101536.22;3509013;28;20039;-75
2021/10/03 00:07:59;;;;;;;21.63;13.27;;;;;;;9.91;56.46;101528.66;3511497;28;20036;-74
2021/10/03 00:09:40;;;;;;;24.27;12.32;;;;;;;9.97;56.42;101539.59;3496413;28;20048;-76
2021/10/03 00:11:21;;;;;;;19.67;13.32;;;;;;;9.94;56.14;101539.88;3486359;28;20470;-74
2021/10/03 00:13:05;;;;;;;20.00;12.35;;;;;;;9.90;56.24;101537.66;3508064;28;20521;-74
2021/10/03 00:14:46;;;;;;;23.00;13.88;;;;;;;9.86;56.05;101534.44;3511201;28;20072;-76
2021/10/03 00:16:28;;;;;;;19.63;12.48;;;;;;;9.79;56.48;101525.34;3511569;28;20509;-78
2021/10/03 00:18:10;;;;;;;22.20;13.68;;;;;;;9.77;56.48;101525.47;3511744;28;20044;-75
2021/10/03 00:19:52;;;;;;;19.08;12.18;;;;;;;9.73;56.46;101520.56;3511967;28;20044;-74
2021/10/03 00:21:33;;;;;;;24.88;13.93;;;;;;;9.75;56.46;101526.59;3496531;28;20045;-75
2021/10/03 00:23:14;;;;;;;23.48;12.60;;;;;;;9.74;56.51;101530.25;3508691;28;20047;-75
2021/10/03 00:24:57;;;;;;;19.48;12.65;;;;;;;9.73;56.30;101523.22;3511288;28;20051;-75
2021/10/03 00:26:39;;;;;;;22.23;13.77;;;;;;;9.69;56.59;101516.53;3511090;28;20040;-74
2021/10/03 00:28:19;;;;;;;17.08;12.10;;;;;;;9.70;56.51;101520.88;3511097;28;20067;-74
2021/10/03 00:30:00;;;;;;;17.77;11.75;;;;;;;9.70;56.62;101520.88;3511772;28;20051;-75
2021/10/03 00:31:41;;;;;;;18.42;12.15;;;;;;;9.71;56.55;101522.56;3510489;28;20130;-75
2021/10/03 00:33:22;;;;;;;19.38;13.10;;;;;;;9.71;56.46;101523.41;3496803;28;20056;-74
2021/10/03 00:35:02;;;;;;;20.88;13.25;;;;;;;9.74;56.49;101525.78;3508674;28;20411;-73
2021/10/03 00:36:43;;;;;;;18.73;12.95;;;;;;;9.75;56.68;101523.94;3511049;28;20039;-73
2021/10/03 00:38:24;;;;;;;21.83;13.00;;;;;;;9.74;56.71;101516.94;3510857;28;20712;-74
2021/10/03 00:40:05;;;;;;;19.52;12.25;;;;;;;9.78;56.46;101524.50;3510997;28;20448;-74
2021/10/03 00:41:46;;;;;;;16.75;12.25;;;;;;;9.78;56.55;101521.84;3510692;28;20085;-74
2021/10/03 00:43:27;;;;;;;25.00;13.52;;;;;;;9.72;56.52;101518.91;3510474;28;20508;-73
2021/10/03 00:45:11;;;;;;;19.33;13.82;;;;;;;9.69;56.65;101519.19;3510639;28;20410;-72
2021/10/03 00:46:51;;;;;;;18.80;13.13;;;;;;;9.65;56.76;101525.78;3510667;28;20044;-72
2021/10/03 00:48:32;;;;;;;21.70;12.80;;;;;;;9.64;56.57;101521.44;3509949;28;20040;-74
2021/10/03 00:50:15;;;;;;;19.08;12.85;;;;;;;9.62;56.86;101521.59;3511143;28;20387;-74
2021/10/03 00:51:56;;;;;;;24.80;13.05;;;;;;;9.64;56.90;101524.13;3495906;28;20049;-73
2021/10/03 00:53:36;;;;;;;20.48;13.60;;;;;;;9.61;56.76;101523.41;3505654;28;20044;-75
2021/10/03 00:55:18;;;;;;;19.42;13.80;;;;;;;9.67;56.76;101523.81;3505757;28;20036;-77
2021/10/03 00:56:59;;;;;;;18.38;12.93;;;;;;;9.67;56.67;101510.50;3509938;28;20032;-76
2021/10/03 00:58:41;;;;;;;20.60;14.23;;;;;;;9.72;56.20;101517.06;3509824;28;20032;-76
2021/10/03 01:00:25;;;;;;;18.33;12.88;;;;;;;9.73;56.63;101517.91;3495044;28;20469;-76
2021/10/03 01:02:05;;;;;;;20.88;12.90;;;;;;;9.70;56.65;101518.19;3492214;28;20044;-77
2021/10/03 01:03:46;;;;;;;17.98;12.27;;;;;;;9.64;56.48;101508.97;3492323;28;20559;-76
2021/10/03 01:05:28;;;;;;;17.65;12.65;;;;;;;9.64;56.71;101510.81;3506742;28;20490;-75
2021/10/03 01:07:08;;;;;;;23.27;12.75;;;;;;;9.61;56.53;101511.94;3509503;28;20126;-76
2021/10/03 01:08:49;;;;;;;23.75;13.68;;;;;;;9.55;56.82;101513.34;3509810;28;20411;-76
2021/10/03 01:10:30;;;;;;;22.92;13.38;;;;;;;9.50;56.85;101514.72;3509083;28;20032;-76
2021/10/03 01:12:12;;;;;;;24.17;13.25;;;;;;;9.45;57.06;101511.66;3509495;28;20453;-75
2021/10/03 01:13:52;;;;;;;19.45;13.43;;;;;;;9.46;56.96;101518.69;3509998;28;20036;-75
2021/10/03 01:15:35;;;;;;;22.70;14.18;;;;;;;9.43;57.30;101514.47;3509626;28;20078;-76
2021/10/03 01:17:16;;;;;;;22.33;14.05;;;;;;;9.41;57.28;101510.28;3509866;28;20131;-75
2021/10/03 01:18:57;;;;;;;19.55;13.98;;;;;;;9.38;57.02;101514.91;3508981;28;20097;-75
2021/10/03 01:20:38;;;;;;;18.85;12.98;;;;;;;9.36;57.33;101514.19;3480171;28;20067;-76
2021/10/03 01:22:19;;;;;;;22.00;13.97;;;;;;;9.35;57.02;101509.88;3503981;28;20051;-76
2021/10/03 01:24:00;;;;;;;19.63;13.10;;;;;;;9.32;57.17;101507.50;3509947;28;20050;-76
2021/10/03 01:25:44;;;;;;;20.95;12.77;;;;;;;9.28;57.33;101510.56;3509038;28;20044;-76
2021/10/03 01:27:25;;;;;;;25.27;13.88;;;;;;;9.25;57.43;101513.50;3509453;28;20071;-75
2021/10/03 01:29:06;;;;;;;20.52;13.18;;;;;;;9.22;57.28;101508.47;3509463;28;20070;-76
2021/10/03 01:30:50;;;;;;;19.77;13.70;;;;;;;9.22;57.53;101514.63;3494496;28;20190;-76
2021/10/03 01:32:31;;;;;;;24.73;15.27;;;;;;;9.21;57.61;101510.28;3507072;28;20449;-77
2021/10/03 01:34:11;;;;;;;17.92;12.82;;;;;;;9.21;57.76;101498.81;3509813;28;20078;-75
2021/10/03 01:35:53;;;;;;;20.55;13.23;;;;;;;9.21;57.56;101506.78;3510118;28;20466;-75
2021/10/03 01:37:34;;;;;;;24.48;14.13;;;;;;;9.20;57.55;101508.59;3494583;28;20036;-76
2021/10/03 01:39:15;;;;;;;20.80;13.48;;;;;;;9.18;57.67;101508.75;3506362;28;20043;-75
2021/10/03 01:40:56;;;;;;;18.80;13.35;;;;;;;9.14;57.69;101509.19;3510229;28;20059;-76
2021/10/03 01:42:38;;;;;;;18.88;13.07;;;;;;;9.15;57.64;101513.50;3509471;28;20048;-75
2021/10/03 01:44:19;;;;;;;25.05;13.25;;;;;;;9.13;57.66;101507.47;3509808;28;20044;-76
2021/10/03 01:46:01;;;;;;;18.83;12.57;;;;;;;9.11;57.89;101510.31;3509608;28;20126;-76
2021/10/03 01:48:00;;;;;;;22.67;14.35;;;;;;;9.17;58.01;101517.72;3508948;28;20032;-75
2021/10/03 01:49:40;;;;;;;21.05;12.95;;;;;;;9.09;57.86;101506.94;3509430;28;20051;-75
2021/10/03 01:51:21;;;;;;;18.85;13.98;;;;;;;9.06;58.12;101511.69;3509683;28;20131;-75
2021/10/03 01:53:02;;;;;;;22.33;13.70;;;;;;;9.05;57.99;101516.16;3510168;28;20044;-75
2021/10/03 01:54:43;;;;;;;21.42;12.15;;;;;;;9.05;58.02;101508.19;3510264;28;20560;-75
2021/10/03 01:56:25;;;;;;;20.80;12.90;;;;;;;9.07;58.15;101514.22;3509984;28;20046;-75
2021/10/03 01:58:07;;;;;;;23.50;13.55;;;;;;;9.10;58.06;101518.41;3509241;28;20040;-76
2021/10/03 01:59:48;;;;;;;22.38;13.48;;;;;;;9.12;57.88;101519.13;3511358;28;20044;-76
2021/10/03 02:01:44;;;;;;;19.70;12.90;;;;;;;9.14;58.09;101520.66;3497889;28;20395;-75
2021/10/03 02:03:25;;;;;;;18.42;13.85;;;;;;;9.10;57.87;101516.59;3511797;28;20036;-75
2021/10/03 02:05:06;;;;;;;21.52;14.25;;;;;;;9.09;57.87;101514.91;3512148;28;20557;-75
2021/10/03 02:06:49;;;;;;;20.85;13.05;;;;;;;9.07;58.12;101508.88;3512281;28;20466;-75
2021/10/03 02:08:30;;;;;;;28.63;12.73;;;;;;;9.07;57.97;101511.53;3512017;28;20040;-76
2021/10/03 02:10:10;;;;;;;23.83;13.25;;;;;;;9.09;57.99;101517.56;3511517;28;20078;-75
2021/10/03 02:11:54;;;;;;;20.48;13.20;;;;;;;9.08;58.16;101518.53;3512439;28;20040;-75
2021/10/03 02:13:35;;;;;;;22.88;12.77;;;;;;;9.07;58.18;101516.03;3512145;28;20040;-75
2021/10/03 02:15:16;;;;;;;20.95;12.95;;;;;;;9.05;58.13;101516.16;3497237;28;20032;-76
2021/10/03 02:16:59;;;;;;;20.52;12.77;;;;;;;9.07;58.08;101524.84;3509367;28;20489;-76
2021/10/03 02:18:40;;;;;;;21.60;13.80;;;;;;;9.05;58.08;101512.66;3511457;28;20093;-75
2021/10/03 02:20:22;;;;;;;18.35;12.90;;;;;;;9.05;58.31;101516.16;3511974;28;20040;-75
2021/10/03 02:22:03;;;;;;;18.73;13.77;;;;;;;9.04;58.43;101514.50;3497038;28;20657;-75
2021/10/03 02:23:45;;;;;;;19.38;13.02;;;;;;;9.00;58.47;101515.75;3475991;28;20037;-75
2021/10/03 02:25:26;;;;;;;;;;;;;;;9.11;58.09;101522.72;3492400;28;20084;-74
2021/10/03 02:27:07;;;;;;;19.08;13.23;;;;;;;9.04;58.08;101516.31;3508731;28;19912;-74
2021/10/03 02:28:49;;;;;;;21.40;14.38;;;;;;;9.00;58.26;101513.09;3512079;28;20074;-75
2021/10/03 02:30:30;;;;;;;18.63;12.43;;;;;;;8.95;58.16;101516.16;3495225;28;20039;-75
2021/10/03 02:32:11;;;;;;;25.67;14.25;;;;;;;8.97;58.49;101513.38;3507761;28;20059;-74
2021/10/03 02:33:52;;;;;;;21.33;13.50;;;;;;;8.99;58.25;101514.06;3490478;28;20578;-76
2021/10/03 02:35:32;;;;;;;18.00;13.00;;;;;;;8.99;58.53;101515.91;3508741;28;20075;-74
2021/10/03 02:37:13;;;;;;;21.25;13.43;;;;;;;9.02;58.27;101516.44;3511704;28;20135;-77
2021/10/03 02:38:54;;;;;;;19.98;13.10;;;;;;;9.02;58.27;101521.75;3495170;28;20462;-76
2021/10/03 02:40:35;;;;;;;18.75;13.38;;;;;;;9.03;58.60;101526.09;3493087;28;20041;-77
2021/10/03 02:42:16;;;;;;;20.27;13.38;;;;;;;9.03;58.59;101517.28;3493971;28;20418;-76
2021/10/03 02:43:58;;;;;;;19.15;13.88;;;;;;;9.02;58.59;101520.94;3509342;28;20122;-76
2021/10/03 02:45:42;;;;;;;24.02;13.43;;;;;;;9.00;58.66;101522.88;3496751;28;20107;-76
2021/10/03 02:47:23;;;;;;;19.50;14.02;;;;;;;8.99;58.76;101516.72;3494699;28;20040;-76
2021/10/03 02:49:04;;;;;;;20.27;14.05;;;;;;;9.00;58.77;101514.91;3508605;28;20058;-76
2021/10/03 02:50:45;;;;;;;20.20;12.95;;;;;;;9.00;58.55;101515.75;3511712;28;20540;-77
2021/10/03 02:52:26;;;;;;;18.10;12.10;;;;;;;9.03;58.77;101519.94;3511848;28;20028;-75
2021/10/03 02:54:07;;;;;;;23.10;14.18;;;;;;;9.04;58.77;101513.66;3511463;28;20136;-76
2021/10/03 02:55:48;;;;;;;19.38;13.30;;;;;;;9.08;58.76;101521.19;3512055;28;20470;-77
2021/10/03 02:57:29;;;;;;;17.90;12.50;;;;;;;9.12;58.54;101516.47;3511468;28;20040;-77
2021/10/03 02:59:10;;;;;;;23.08;13.57;;;;;;;9.14;58.28;101514.50;3496315;28;20041;-77
2021/10/03 03:00:52;;;;;;;18.77;12.50;;;;;;;9.15;58.31;101509.03;3508642;28;20036;-77
2021/10/03 03:02:32;;;;;;;;;;;;;;;9.26;58.15;101508.03;3511682;28;20044;-75
2021/10/03 03:04:13;;;;;;;19.58;12.95;;;;;;;9.20;57.97;101513.09;3511182;28;20267;-76
2021/10/03 03:05:54;;;;;;;15.63;11.73;;;;;;;9.19;58.05;101517.59;3511557;28;20048;-76
2021/10/03 03:07:38;;;;;;;17.52;11.93;;;;;;;9.19;58.01;101522.91;3511273;28;20036;-76
2021/10/03 03:09:19;;;;;;;26.55;13.55;;;;;;;9.18;58.02;101515.88;3510911;28;20108;-75
2021/10/03 03:11:00;;;;;;;24.73;13.40;;;;;;;9.24;57.93;101522.47;3510550;28;20032;-76
2021/10/03 03:12:41;;;;;;;19.25;12.63;;;;;;;9.23;57.99;101513.66;3510502;28;20097;-75
2021/10/03 03:14:22;;;;;;;23.52;13.23;;;;;;;9.29;57.83;101522.88;3510961;28;20485;-75
2021/10/03 03:16:03;;;;;;;19.38;12.48;;;;;;;9.30;57.86;101525.41;3511238;28;20066;-75
2021/10/03 03:17:44;;;;;;;25.40;13.50;;;;;;;9.33;57.75;101529.59;3488653;28;20040;-76
2021/10/03 03:19:25;;;;;;;20.48;12.98;;;;;;;9.33;57.54;101529.59;3508319;28;20051;-77
2021/10/03 03:21:06;;;;;;;16.30;12.48;;;;;;;9.33;57.79;101529.59;3511705;28;20047;-76
2021/10/03 03:22:47;;;;;;;17.55;12.70;;;;;;;9.33;57.59;101529.59;3511642;28;20482;-76
2021/10/03 03:24:28;;;;;;;20.65;13.35;;;;;;;9.33;57.77;101518.97;3511033;28;20043;-76
2021/10/03 03:26:09;;;;;;;21.00;13.40;;;;;;;9.35;57.79;101522.34;3510991;28;20093;-76
2021/10/03 03:27:49;;;;;;;20.55;12.35;;;;;;;9.34;57.79;101531.28;3511498;28;20039;-77
2021/10/03 03:29:31;;;;;;;26.63;13.93;;;;;;;9.31;57.85;101515.59;3510731;28;20043;-76
2021/10/03 03:31:12;;;;;;;22.05;13.32;;;;;;;9.34;57.90;101521.47;3510786;28;20060;-75
2021/10/03 03:32:53;;;;;;;21.10;13.00;;;;;;;9.34;57.85;101525.97;3511253;28;20044;-75
2021/10/03 03:34:34;;;;;;;24.50;14.07;;;;;;;9.34;57.85;101520.63;3510552;28;20081;-74
2021/10/03 03:36:15;;;;;;;20.85;12.98;;;;;;;9.34;57.59;101520.63;3495811;28;20086;-76
2021/10/03 03:37:55;;;;;;;18.45;13.30;;;;;;;9.33;57.58;101525.13;3507931;28;20065;-76
2021/10/03 03:39:36;;;;;;;21.45;13.43;;;;;;;9.35;57.63;101517.84;3510877;28;20068;-76
2021/10/03 03:41:18;;;;;;;20.48;14.02;;;;;;;9.34;57.63;101510.81;3511289;28;20158;-76
2021/10/03 03:42:59;;;;;;;21.20;13.85;;;;;;;9.34;57.69;101512.66;3496805;28;20040;-76
2021/10/03 03:44:40;;;;;;;22.73;13.90;;;;;;;9.33;57.60;101514.47;3507937;28;20036;-76
2021/10/03 03:46:20;;;;;;;24.00;13.70;;;;;;;9.31;57.58;101518.25;3511014;28;20047;-76
2021/10/03 03:48:01;;;;;;;22.08;14.15;;;;;;;9.30;57.62;101508.63;3510834;28;20032;-75
2021/10/03 03:49:43;;;;;;;21.85;14.13;;;;;;;9.28;57.58;101506.06;3510474;28;20046;-76
2021/10/03 03:51:24;;;;;;;28.20;14.60;;;;;;;9.26;57.27;101508.03;3510902;28;20051;-75
2021/10/03 03:53:05;;;;;;;21.20;14.00;;;;;;;9.25;57.26;101511.69;3509038;28;20126;-75
2021/10/03 03:54:47;;;;;;;20.55;13.80;;;;;;;9.26;57.61;101508.03;3510989;28;20036;-76
2021/10/03 03:56:27;;;;;;;23.65;14.10;;;;;;;9.29;57.54;101522.88;3510844;28;20036;-75
2021/10/03 03:58:08;;;;;;;27.92;14.68;;;;;;;9.32;57.21;101514.59;3510753;28;20043;-75
2021/10/03 03:59:49;;;;;;;23.25;14.35;;;;;;;9.35;57.36;101527.66;3510682;28;20051;-75
2021/10/03 04:01:29;;;;;;;24.25;14.65;;;;;;;9.30;57.34;101513.94;3510593;28;20040;-75
2021/10/03 04:03:10;;;;;;;24.92;15.40;;;;;;;9.34;57.15;101529.44;3510641;28;20047;-76
2021/10/03 04:04:51;;;;;;;22.38;12.80;;;;;;;9.36;57.25;101534.66;3510997;28;20475;-75
2021/10/03 04:06:32;;;;;;;23.92;14.50;;;;;;;9.37;57.13;101534.50;3510300;28;20139;-76
2021/10/03 04:08:12;;;;;;;27.90;15.00;;;;;;;9.37;57.15;101523.00;3510385;28;20557;-76
2021/10/03 04:09:53;;;;;;;28.83;14.48;;;;;;;9.39;57.07;101531.69;3510743;28;20181;-74
2021/10/03 04:11:34;;;;;;;23.45;13.43;;;;;;;9.38;57.14;101524.72;3495502;28;20068;-73
2021/10/03 04:13:14;;;;;;;22.73;13.63;;;;;;;9.40;57.07;101525.41;3507266;28;20134;-75
2021/10/03 04:14:55;;;;;;;24.08;14.82;;;;;;;9.41;56.77;101521.75;3511076;28;20032;-74
2021/10/03 04:16:36;;;;;;;31.55;15.18;;;;;;;9.45;57.01;101528.50;3495790;28;20052;-74
2021/10/03 04:18:18;;;;;;;23.00;14.20;;;;;;;9.46;56.78;101524.84;3507770;28;20055;-74
2021/10/03 04:19:59;;;;;;;27.17;15.30;;;;;;;9.47;56.78;101526.50;3510761;28;20039;-74
2021/10/03 04:21:39;;;;;;;24.60;15.18;;;;;;;9.48;56.77;101522.88;3510298;28;20543;-75
2021/10/03 04:23:20;;;;;;;26.45;13.60;;;;;;;9.47;56.58;101523.84;3495379;28;20561;-76
2021/10/03 04:25:01;;;;;;;28.73;15.52;;;;;;;9.49;56.64;101516.56;3492701;28;20037;-76
2021/10/03 04:26:42;;;;;;;23.67;14.15;;;;;;;9.52;56.45;101521.59;3507790;28;20097;-76
2021/10/03 04:28:25;;;;;;;21.85;13.70;;;;;;;9.51;56.58;101516.44;3510267;28;20127;-75
2021/10/03 04:30:06;;;;;;;26.17;14.25;;;;;;;9.51;56.34;101516.44;3510163;28;20506;-76
2021/10/03 04:31:47;;;;;;;26.17;14.77;;;;;;;9.52;56.44;101516.25;3510386;28;20066;-75
2021/10/03 04:33:28;;;;;;;22.65;12.90;;;;;;;9.55;56.17;101521.31;3510440;28;20482;-75
2021/10/03 04:35:09;;;;;;;24.83;13.80;;;;;;;9.57;56.25;101522.00;3510109;28;20448;-75
2021/10/03 04:36:51;;;;;;;24.80;13.93;;;;;;;9.63;56.27;101523.28;3510650;28;20093;-76
2021/10/03 04:38:31;;;;;;;22.77;13.63;;;;;;;9.66;55.96;101525.66;3510211;28;20161;-77
2021/10/03 04:40:12;;;;;;;25.60;13.25;;;;;;;9.70;55.94;101526.19;3510312;28;20502;-76
2021/10/03 04:41:53;;;;;;;24.42;12.73;;;;;;;9.72;55.96;101516.25;3510228;28;20097;-76
2021/10/03 04:43:34;;;;;;;31.63;13.30;;;;;;;9.78;55.66;101519.19;3510494;28;20126;-76
2021/10/03 04:45:16;;;;;;;23.20;13.13;;;;;;;9.86;55.53;101520.25;3510242;28;20066;-75
2021/10/03 04:46:58;;;;;;;23.15;13.55;;;;;;;9.94;55.39;101518.56;3510509;28;20075;-76
2021/10/03 04:48:38;;;;;;;22.70;12.35;;;;;;;9.97;55.31;101523.59;3509722;28;20032;-76
2021/10/03 04:50:19;;;;;;;27.60;12.75;;;;;;;9.97;55.20;101528.94;3509803;28;20108;-76
2021/10/03 04:52:00;;;;;;;18.88;11.82;;;;;;;9.92;55.10;101519.69;3510242;28;20510;-76
2021/10/03 04:53:41;;;;;;;22.08;13.73;;;;;;;9.91;55.27;101526.81;3510097;28;20773;-76
2021/10/03 04:55:22;;;;;;;19.60;12.43;;;;;;;9.93;55.09;101532.84;3509818;28;20035;-77
2021/10/03 04:57:02;;;;;;;19.80;13.15;;;;;;;9.86;55.06;101518.47;3509944;28;20073;-76
2021/10/03 04:58:43;;;;;;;19.95;12.85;;;;;;;9.95;55.10;101522.91;3509990;28;20047;-76
2021/10/03 05:00:24;;;;;;;19.98;12.73;;;;;;;9.93;55.25;101524.88;3509965;28;20093;-75
2021/10/03 05:02:05;;;;;;;23.38;14.45;;;;;;;9.93;55.29;101526.69;3509643;28;20382;-78
2021/10/03 05:03:45;;;;;;;20.10;12.90;;;;;;;10.00;55.23;101528.63;3510216;28;20082;-75
2021/10/03 05:05:26;;;;;;;18.85;13.05;;;;;;;10.04;55.06;101526.50;3509708;28;20027;-77
2021/10/03 05:07:07;;;;;;;21.42;13.52;;;;;;;10.11;55.06;101530.28;3494761;28;20404;-75
2021/10/03 05:08:47;;;;;;;19.45;13.10;;;;;;;10.13;54.94;101527.47;3506864;28;20121;-75
2021/10/03 05:10:28;;;;;;;20.50;13.93;;;;;;;10.09;54.80;101536.72;3509694;28;20039;-76
2021/10/03 05:12:09;;;;;;;23.95;13.40;;;;;;;10.10;54.77;101541.09;3509525;28;20054;-75
2021/10/03 05:13:50;;;;;;;24.27;13.63;;;;;;;10.12;54.65;101531.97;3509880;28;20570;-75
2021/10/03 05:15:31;;;;;;;21.27;13.73;;;;;;;10.27;54.42;101532.31;3509469;28;20039;-76
2021/10/03 05:17:12;;;;;;;21.88;13.52;;;;;;;10.39;54.33;101541.00;3509237;28;20044;-75
2021/10/03 05:18:52;;;;;;;37.10;14.35;;;;;;;10.55;53.84;101529.69;3509573;28;20032;-76
2021/10/03 05:20:33;;;;;;;28.65;15.35;;;;;;;10.74;53.54;101539.38;3494606;28;20076;-75
2021/10/03 05:22:14;;;;;;;26.85;13.13;;;;;;;10.86;53.25;101539.03;3506221;28;20040;-76
2021/10/03 05:23:54;;;;;;;17.33;12.13;;;;;;;10.88;52.96;101536.22;3495052;28;20096;-75
2021/10/03 05:25:35;;;;;;;18.30;11.90;;;;;;;10.88;52.97;101538.88;3506582;28;20475;-76
2021/10/03 05:27:16;;;;;;;20.48;13.57;;;;;;;10.99;52.65;101545.81;3509921;28;20040;-75
2021/10/03 05:28:56;;;;;;;19.08;12.23;;;;;;;11.08;52.40;101544.94;3509627;28;20036;-77
2021/10/03 05:30:37;;;;;;;17.98;11.85;;;;;;;11.19;52.20;101546.53;3509290;28;20047;-77
2021/10/03 05:32:18;;;;;;;17.23;11.70;;;;;;;11.39;52.00;101547.22;3494356;28;20068;-74
2021/10/03 05:33:59;;;;;;;18.17;12.90;;;;;;;11.54;51.51;101545.66;3506403;28;20108;-75
2021/10/03 05:35:40;;;;;;;17.33;12.05;;;;;;;11.73;51.25;101545.47;3508853;28;20502;-75
2021/10/03 05:37:20;;;;;;;22.38;13.43;;;;;;;11.88;50.88;101539.59;3494300;28;20094;-76
2021/10/03 05:39:01;;;;;;;19.77;12.95;;;;;;;11.95;50.85;101549.50;3506068;28;20043;-75
2021/10/03 05:40:42;;;;;;;17.90;11.98;;;;;;;12.02;50.53;101543.50;3509484;28;20522;-77
2021/10/03 05:42:23;;;;;;;29.95;12.15;;;;;;;12.14;50.19;101539.56;3509381;28;20063;-77
2021/10/03 05:44:04;;;;;;;17.77;11.68;;;;;;;12.29;49.96;101537.13;3509374;28;20044;-74
2021/10/03 05:45:45;;;;;;;20.92;13.23;;;;;;;12.38;49.73;101531.66;3509722;28;20036;-75
2021/10/03 05:47:25;;;;;;;17.08;12.13;;;;;;;12.51;49.59;101544.56;3509266;28;20055;-75
2021/10/03 05:49:06;;;;;;;18.75;12.02;;;;;;;12.62;49.31;101536.28;3508733;28;20036;-77
2021/10/03 05:50:47;;;;;;;19.70;11.68;;;;;;;12.75;49.00;101540.28;3494665;28;20070;-75
2021/10/03 05:52:28;;;;;;;16.97;11.50;;;;;;;12.87;48.61;101536.31;3506055;28;21174;-75
2021/10/03 05:54:09;;;;;;;21.27;11.80;;;;;;;13.04;48.26;101534.53;3509260;28;20325;-75
2021/10/03 05:55:49;;;;;;;18.35;11.70;;;;;;;13.31;47.76;101536.06;3509535;28;20036;-75
2021/10/03 05:57:30;;;;;;;16.23;10.88;;;;;;;13.61;47.40;101531.88;3508638;28;20036;-76
2021/10/03 05:59:14;;;;;;;17.60;12.40;;;;;;;13.87;46.71;101537.03;3508717;28;20043;-76
2021/10/03 06:00:55;;;;;;;18.60;11.90;;;;;;;14.11;46.33;101537.97;3509532;28;20495;-76
2021/10/03 06:02:35;;;;;;;20.20;11.82;;;;;;;14.25;46.14;101539.97;3504432;28;20045;-75
2021/10/03 06:04:16;;;;;;;21.98;12.95;;;;;;;14.38;45.44;101529.50;3506056;28;20077;-75
2021/10/03 06:05:57;;;;;;;22.65;14.15;;;;;;;14.49;45.44;101530.13;3509442;28;20040;-76
2021/10/03 06:07:37;;;;;;;18.55;13.07;;;;;;;14.48;45.12;101539.19;3494011;28;20586;-75
2021/10/03 06:09:18;;;;;;;16.50;12.10;;;;;;;14.38;45.18;101540.25;3505990;28;20044;-77
2021/10/03 06:10:59;;;;;;;18.58;11.88;;;;;;;14.29;45.43;101530.53;3509779;28;20488;-76
2021/10/03 06:12:39;;;;;;;19.25;11.38;;;;;;;14.33;45.32;101529.19;3508863;28;20062;-78
2021/10/03 06:14:20;;;;;;;19.85;12.98;;;;;;;14.40;45.16;101527.50;3509178;28;20235;-76
2021/10/03 06:16:01;;;;;;;19.98;13.43;;;;;;;14.63;44.78;101533.94;3494660;28;20032;-75
2021/10/03 06:17:41;;;;;;;20.83;12.30;;;;;;;14.87;44.51;101527.59;3505897;28;20046;-75
2021/10/03 06:19:22;;;;;;;18.63;12.95;;;;;;;15.19;44.13;101534.59;3508640;28;20179;-76
2021/10/03 06:21:05;;;;;;;21.48;13.23;;;;;;;15.43;43.61;101542.44;3494078;28;20040;-76
2021/10/03 06:22:46;;;;;;;18.92;12.48;;;;;;;15.64;43.33;101540.94;3506454;28;20075;-76
2021/10/03 06:24:27;;;;;;;19.50;13.93;;;;;;;15.88;42.85;101537.22;3509019;28;20402;-76
2021/10/03 06:26:08;;;;;;;21.27;13.52;;;;;;;16.17;42.65;101530.19;3508745;28;20290;-76
2021/10/03 06:27:48;;;;;;;25.90;14.60;;;;;;;16.44;42.00;101537.56;3509321;28;20123;-75
2021/10/03 06:29:29;;;;;;;19.30;13.73;;;;;;;16.67;41.65;101542.00;3509212;28;20093;-76
2021/10/03 06:31:10;;;;;;;21.05;13.38;;;;;;;16.90;40.92;101534.63;3508628;28;20418;-77
2021/10/03 06:32:51;;;;;;;22.03;13.33;;;;;;;17.16;40.50;101525.97;3509299;28;20574;-77
2021/10/03 06:34:32;;;;;;;20.80;14.35;;;;;;;17.36;39.94;101528.84;3509279;28;20329;-76
2021/10/03 06:36:12;;;;;;;24.23;14.90;;;;;;;17.53;39.17;101531.25;3508837;28;20044;-75
2021/10/03 06:37:54;;;;;;;23.25;14.25;;;;;;;17.64;39.24;101539.66;3509252;28;20047;-74
2021/10/03 06:39:34;;;;;;;21.63;15.05;;;;;;;17.92;38.60;101538.03;3508838;28;20040;-76
2021/10/03 06:41:15;;;;;;;24.80;16.08;;;;;;;18.17;38.14;101539.19;3508621;28;20040;-76
2021/10/03 06:42:57;;;;;;;22.57;14.50;;;;;;;18.32;37.75;101544.47;3509504;28;20044;-76
2021/10/03 06:44:37;;;;;;;25.08;15.35;;;;;;;18.49;37.49;101548.50;3508674;28;20133;-76
2021/10/03 06:46:18;;;;;;;22.73;16.10;;;;;;;18.68;37.07;101541.50;3495612;28;20123;-76
2021/10/03 06:47:59;;;;;;;20.77;15.73;;;;;;;18.93;36.55;101549.09;3508346;28;20135;-74
2021/10/03 06:49:40;;;;;;;22.17;15.90;;;;;;;19.07;36.58;101548.09;3511270;28;20043;-77
2021/10/03 06:51:21;;;;;;;22.58;16.15;;;;;;;19.24;36.20;101545.00;3511753;28;20031;-76
2021/10/03 06:53:03;;;;;;;23.33;14.32;;;;;;;19.42;35.85;101541.69;3498693;28;20059;-75
2021/10/03 06:54:44;;;;;;;27.95;16.15;;;;;;;19.67;35.29;101542.78;3502802;28;20074;-77
2021/10/03 06:56:25;;;;;;;21.95;16.27;;;;;;;19.88;35.08;101543.56;3513089;28;20126;-77
2021/10/03 06:58:07;;;;;;;23.10;15.27;;;;;;;19.99;34.32;101543.75;3510878;28;20079;-77
2021/10/03 06:59:47;;;;;;;22.67;15.83;;;;;;;20.10;34.33;101549.56;3512135;28;20139;-76
2021/10/03 07:01:28;;;;;;;18.90;14.27;;;;;;;20.30;34.20;101549.50;3509890;28;20435;-76
2021/10/03 07:03:09;;;;;;;21.17;14.60;;;;;;;20.33;33.79;101539.06;3511322;28;20105;-75
2021/10/03 07:04:50;;;;;;;18.13;14.93;;;;;;;20.23;33.94;101534.09;3522413;28;20043;-76
2021/10/03 07:06:30;;;;;;;23.53;14.90;;;;;;;20.17;34.03;101534.13;3526962;28;20036;-76
2021/10/03 07:08:12;;;;;;;19.87;15.47;;;;;;;20.02;33.97;101531.66;3526556;28;20040;-77
2021/10/03 07:09:53;;;;;;;24.15;16.00;;;;;;;19.97;34.28;101548.53;3528338;28;20071;-75
2021/10/03 07:11:33;;;;;;;28.00;17.67;;;;;;;20.01;33.70;101557.91;3528022;28;20050;-77
2021/10/03 07:13:14;;;;;;;22.43;16.97;;;;;;;20.01;33.89;101538.97;3527986;28;20044;-78
2021/10/03 07:14:55;;;;;;;26.53;16.47;;;;;;;20.18;33.50;101541.19;3499646;28;20044;-76
2021/10/03 07:16:35;;;;;;;23.23;16.73;;;;;;;20.46;33.18;101544.44;3522519;28;20071;-76
2021/10/03 07:18:16;;;;;;;23.73;16.70;;;;;;;20.88;32.89;101539.50;3512815;28;20036;-76
2021/10/03 07:19:57;;;;;;;21.30;16.90;;;;;;;21.22;32.17;101542.81;3510252;28;20040;-78
2021/10/03 07:21:38;;;;;;;24.37;18.10;;;;;;;21.47;31.96;101540.13;3525488;28;20043;-76
2021/10/03 07:23:18;;;;;;;22.33;17.40;;;;;;;21.76;31.54;101545.94;3529064;28;20518;-77
2021/10/03 07:24:59;;;;;;;23.03;16.07;;;;;;;22.10;31.22;101547.28;3528490;28;20035;-76
2021/10/03 07:26:40;;;;;;;23.67;15.73;;;;;;;22.34;30.68;101537.41;3527449;28;20047;-76
2021/10/03 07:28:23;;;;;;;21.90;16.20;;;;;;;22.51;30.53;101534.06;3526624;28;20513;-79
2021/10/03 07:30:06;;;;;;;23.42;15.88;;;;;;;22.65;29.83;101544.53;3496992;28;20120;-76
2021/10/03 07:31:47;;;;;;;20.48;14.85;;;;;;;22.68;29.79;101542.44;3509545;28;20063;-76
2021/10/03 07:33:27;;;;;;;25.30;14.57;;;;;;;22.65;29.62;101536.38;3512498;28;20043;-77
2021/10/03 07:35:10;;;;;;;19.83;14.73;;;;;;;22.80;29.92;101524.28;3512338;28;20086;-78
2021/10/03 07:36:51;;;;;;;18.80;15.15;;;;;;;23.00;29.42;101538.47;3511967;28;20665;-76
2021/10/03 07:38:32;;;;;;;26.30;16.20;;;;;;;23.06;29.43;101531.25;3496361;28;20048;-76
2021/10/03 07:40:13;;;;;;;23.90;16.50;;;;;;;23.11;29.36;101534.09;3508563;28;20040;-76
2021/10/03 07:41:53;;;;;;;24.00;15.47;;;;;;;23.17;29.19;101532.34;3512033;28;20051;-75
2021/10/03 07:43:34;;;;;;;21.37;16.63;;;;;;;23.33;29.21;101530.84;3511336;28;20410;-77